Pagrindinis puslapis
METAR-TAF:

METAR-TAF

Oro uostai :

St. Michael, Aliaska, Jungtinės Amerikos Valstijos

platuma: 63-29-24N, ilguma: 162-06-37W, Aukštis: 30 m

Dabartinis oras

Ataskaita buvo paskelbta 20 minutes, ne 19:36 UTC
Vėjas 9 kt iš Rytų/Šiaurės Rytų
Temperatūra -12°C
Drėgmė 85%
Slėgis 1007 hPa
Matomumas: 12.9 km
Su prošvaistėmis ne aukštis 2600 ft
Apsiniaukę ne aukštis 6000 ft
sniegas

METAR: PAMK 161936Z AUTO 07009KT 8SM -SN BKN026 OVC060 M12/M14 A2975 RMK AO2 P0000 FZRANO

Laikas: 10:56 (19:56 UTC)


TAF: trūkstamas

Orai ataskaitas ir orų prognozės (METAR, TAF).

turimą stotys yra geltonos ir raudonos taškus žemėlapyje.

Perkelti pele per norėdami pamatyti stoties vardą.

Tada spustelėkite, norėdami matyti oro stebėjimo ir prognozės.

Norėdami pakeisti žemėlapį: spustelėkite ant žalios mygtukų su juodo kryžiaus žemyn,; žalią mygtuką su brūkšneliu, jei norite nutolinti; arba žalių rodyklių gretimoms žemėlapius.


METAR-TAF: